< < Back
Terminal Aerodrome Forecast


Current Version              Previous Versions:   1  2  3  4  5  6  7  8  9  

Terminal Aerodrome Forecast

342
FTUS44 KOHX 042139 AAB
TAFBNA
TAF AMD
KBNA 042139Z 0422/0518 31008G17KT P6SM SCT040 SCT100
      TEMPO 0422/0501 VRB15G30KT 4SM TSRA BKN040CB
     FM051500 33013KT P6SM SCT025 BKN040=

Latest METAR

214
SAUS70 KWBC 051600 RRA
MTRBNA
METAR KBNA 051553Z 33015G26KT 10SM OVC046 14/03 A2985 RMK AO2 PK WND
33026/1551 SLP107 T01390033


USA.gov is the U.S. government's official web portal to all federal, state and local government web resources and services.